Aviation Digital Data Service (ADDS)

Output produced by TAFs form (0813 UTC 21 April 2015)
found at http://aviationweather.gov/adds/tafs/
 
KMAF 210520Z 2106/2206 17009KT P6SM SKC 
     FM211700 17011KT P6SM FEW120 SCT250